Flight Track Log - Related Links

Times and Time Zones

All times are in EDT time to prevent confusion due to time zone crossing. See the AWE1963 flight status page for this flight to view local times or setup timezone preferences in your user account.

Time Position Orientation Groundspeed Altitude Reporting Facility
EDT Latitude Longitude Course Direction KTS MPH feet Rate Location/Type
Sat 09:16:18 AM 35.2369 -80.9417 180° South 161 185 1,700  Level Atlanta Center
Sat 09:17:18 AM 35.2781 -80.9144 28° Northeast 200 230 2,900 1,808 Climbing Atlanta Center
Sat 09:18:00 AM 35.0256 -80.7756 180° South  Level Estimated
Sat 09:18:44 AM 35.2178 -80.8456 137° Southeast 234 269 6,100  Level Atlanta Center
Sat 09:19:00 AM 34.9314 -80.6891 175° South  Level Estimated
Sat 09:19:44 AM 35.1386 -80.8539 185° South 228 262 8,400  Level Atlanta Center
Sat 09:20:00 AM 34.8372 -80.6028 180° South  Level Estimated
Sat 09:20:44 AM 35.0553 -80.8594 183° South 276 318 10,600  Level Atlanta Center
Sat 09:21:00 AM 34.7429 -80.5168 180° South  Level Estimated
Sat 09:23:12 AM 34.8242 -80.8972 188° South 364 419 14,400  Level Jacksonville Center
Sat 09:24:12 AM 34.7242 -80.9147 188° South 379 436 16,200 1,750 Climbing Jacksonville Center
Sat 09:25:12 AM 34.6161 -80.9322 188° South 384 442 17,900 1,750 Climbing Jacksonville Center
Sat 09:26:12 AM 34.5078 -80.9525 189° South 390 449 19,700 1,650 Climbing Jacksonville Center
Sat 09:27:12 AM 34.3936 -80.9725 188° South 390 449 21,200 1,400 Climbing Jacksonville Center
Sat 09:28:12 AM 34.2853 -80.9875 187° South 390 449 22,500 1,350 Climbing Jacksonville Center
Sat 09:29:12 AM 34.1769 -81.0025 187° South 390 449 23,900 1,200 Climbing Jacksonville Center
Sat 09:30:12 AM 34.0683 -80.9847 172° South 390 449 24,900 550 Climbing Jacksonville Center
Sat 09:31:12 AM 33.9556 -80.9822 179° South 396 456 25,000 50 Climbing Jacksonville Center
Sat 09:32:12 AM 33.8386 -80.9847 181° South 406 467 25,000  Level Jacksonville Center
Sat 09:33:12 AM 33.7239 -80.9922 183° South 411 473 25,000  Level Jacksonville Center
Sat 09:34:12 AM 33.6094 -80.9997 183° South 416 479 25,000 450 Level Jacksonville Center
Sat 09:35:12 AM 33.4947 -81.0047 182° South 416 479 25,900 950 Climbing Jacksonville Center
Sat 09:36:12 AM 33.3778 -81.0122 183° South 421 484 26,900 950 Climbing Jacksonville Center
Sat 09:37:12 AM 33.2694 -81.0169 182° South 421 484 27,800 850 Climbing Jacksonville Center
Sat 09:38:12 AM 33.1506 -81.0244 183° South 421 484 28,600 700 Climbing Jacksonville Center
Sat 09:39:12 AM 33.0275 -81.0294 182° South 426 490 29,200 700 Climbing Jacksonville Center
Sat 09:40:12 AM 32.9025 -81.0369 183° South 440 506 30,000 900 Climbing Jacksonville Center
Sat 09:41:12 AM 32.7814 -81.0419 182° South 440 506 31,000 900 Climbing Jacksonville Center
Sat 09:42:12 AM 32.6561 -81.0494 183° South 440 506 31,800 850 Climbing Jacksonville Center
Sat 09:43:12 AM 32.5353 -81.0567 183° South 440 506 32,700 950 Climbing Jacksonville Center
Sat 09:44:12 AM 32.4164 -81.0617 182° South 429 494 33,700 850 Climbing Jacksonville Center
Sat 09:45:12 AM 32.2911 -81.0692 183° South 440 506 34,400 750 Climbing Jacksonville Center
Sat 09:46:12 AM 32.1722 -81.0739 182° South 440 506 35,200 750 Climbing Jacksonville Center
Sat 09:47:12 AM 32.0533 -81.0811 183° South 435 501 35,900 400 Climbing Jacksonville Center
Sat 09:48:12 AM 31.9344 -81.0883 183° South 435 501 36,000 50 Climbing Jacksonville Center
Sat 09:49:12 AM 31.8050 -81.0908 181° South 430 495 36,000  Level Jacksonville Center
Sat 09:50:13 AM 31.6986 -81.0978 183° South 425 489 36,000  Level Jacksonville Center
Sat 09:51:12 AM 31.5672 -81.1053 183° South 425 489 36,000  Level Jacksonville Center
Sat 09:52:12 AM 31.4608 -81.1097 182° South 425 489 36,000  Level Jacksonville Center
Sat 09:53:12 AM 31.3253 -81.1219 184° South 430 495 36,000  Level Jacksonville Center
Sat 09:54:12 AM 31.2022 -81.1244 181° South 441 507 36,000  Level Jacksonville Center
Sat 09:55:13 AM 31.0811 -81.1292 182° South 436 502 36,000  Level Jacksonville Center
Sat 09:56:12 AM 30.9728 -81.1383 184° South 436 502 36,000  Level Jacksonville Center
Sat 09:57:12 AM 30.8494 -81.1431 182° South 436 502 36,000  Level Jacksonville Center
Sat 09:58:13 AM 30.7286 -81.1478 182° South 436 502 36,000 -50 Level Jacksonville Center
Sat 09:59:12 AM 30.6075 -81.1525 182° South 442 509 35,900  Descending Jacksonville Center
Sat 10:00:12 AM 30.4861 -81.1328 172° South 436 502 36,000  Climbing Jacksonville Center
Sat 10:01:12 AM 30.3644 -81.0917 164° South 449 517 35,900  Descending Jacksonville Center
Sat 10:02:12 AM 30.2428 -81.0533 165° South 449 517 36,000  Climbing Jacksonville Center
Sat 10:03:12 AM 30.1253 -81.0144 164° South 454 522 35,900 -50 Descending Jacksonville Center
Sat 10:04:13 AM 30.0036 -80.9761 165° South 454 522 35,900 50 Level Jacksonville Center
Sat 10:05:12 AM 29.8800 -80.9356 164° South 454 522 36,000 50 Climbing Jacksonville Center
Sat 10:06:12 AM 29.7583 -80.8972 165° South 454 522 36,000  Level Jacksonville Center
Sat 10:07:13 AM 29.6344 -80.8569 164° South 454 522 36,000  Level Jacksonville Center
Sat 10:08:12 AM 29.5128 -80.8189 165° South 454 522 36,000  Level Jacksonville Center
Sat 10:09:12 AM 29.3825 -80.7739 163° South 454 522 36,000  Level Jacksonville Center
Sat 10:10:18 AM 29.2600 -80.7381 166° South 453 521 36,000  Level Miami Center
Sat 10:11:18 AM 29.1278 -80.6956 164° South 453 521 36,000  Level Miami Center
Sat 10:12:18 AM 29.0206 -80.6442 157° South 453 521 36,000  Level Miami Center
Sat 10:13:18 AM 28.9236 -80.5294 134° Southeast 443 510 36,000  Level Miami Center
Sat 10:14:18 AM 28.8511 -80.4228 128° Southeast 453 521 36,000  Level Miami Center
Sat 10:15:18 AM 28.7603 -80.2969 129° Southeast 459 528 36,000 50 Level Miami Center
Sat 10:16:18 AM 28.6733 -80.1806 130° Southeast 472 543 36,100  Climbing Miami Center
Sat 10:17:18 AM 28.5925 -80.0694 130° Southeast 467 537 36,000 -50 Descending Miami Center
Sat 10:18:18 AM 28.5175 -79.9681 130° Southeast 467 537 36,000  Level Miami Center
Sat 10:19:18 AM 28.4242 -79.8428 130° Southeast 467 537 36,000  Level Miami Center
Sat 10:20:18 AM 28.3408 -79.7319 130° Southeast 462 532 36,000  Level Miami Center
Sat 10:21:18 AM 28.2594 -79.6217 130° Southeast 462 532 36,000  Level Miami Center
Sat 10:22:18 AM 28.1739 -79.5111 131° Southeast 462 532 36,000  Level Miami Center
Sat 10:23:18 AM 28.0903 -79.3986 130° Southeast 462 532 36,000  Level Miami Center
Sat 10:24:18 AM 28.0067 -79.2836 129° Southeast 462 532 36,000  Level Miami Center
Sat 10:25:18 AM 27.9228 -79.1739 131° Southeast 462 532 36,000  Level Miami Center
Sat 10:26:18 AM 27.8389 -79.0642 131° Southeast 462 532 36,000 50 Level Miami Center
Sat 10:27:18 AM 27.7653 -78.9617 129° Southeast 462 532 36,100 300 Climbing Miami Center
Sat 10:28:18 AM 27.6814 -78.8522 131° Southeast 462 532 36,600 450 Climbing Miami Center
Sat 10:29:18 AM 27.5869 -78.7289 131° Southeast 468 539 37,000 200 Climbing Miami Center
Sat 10:30:18 AM 27.4986 -78.6197 132° Southeast 462 532 37,000  Level Miami Center
Sat 10:31:18 AM 27.4119 -78.5108 132° Southeast 462 532 37,000 -50 Level Miami Center
Sat 10:32:18 AM 27.3339 -78.3972 128° Southeast 462 532 36,900  Descending Miami Center
Sat 10:33:18 AM 27.2514 -78.3097 137° Southeast 457 526 37,000 50 Climbing Miami Center
Sat 10:34:18 AM 27.1689 -78.1919 128° Southeast 462 532 37,000  Level Miami Center
Sat 10:35:18 AM 27.0778 -78.0931 136° Southeast 462 532 37,000  Level Miami Center
Sat 10:36:18 AM 26.9953 -77.9708 127° Southeast 468 539 37,000 50 Level Miami Center
Sat 10:37:18 AM 26.9103 -77.8628 131° Southeast 462 532 37,100  Climbing Miami Center
Sat 10:38:18 AM 26.8275 -77.7619 133° Southeast 456 525 37,000 -50 Descending Miami Center
Sat 10:39:18 AM 26.7444 -77.6519 130° Southeast 461 531 37,000  Level Miami Center
Sat 10:40:18 AM 26.6636 -77.5444 130° Southeast 455 524 37,000  Level Miami Center
Sat 10:41:18 AM 26.5700 -77.4233 131° Southeast 455 524 37,000  Level Miami Center
Sat 10:42:18 AM 26.4869 -77.3231 133° Southeast 455 524 37,000  Level Miami Center
Sat 10:43:18 AM 26.4036 -77.2136 130° Southeast 455 524 37,000  Level Miami Center
Sat 10:44:18 AM 26.3286 -77.1183 131° Southeast 455 524 37,000  Level Miami Center
Sat 10:45:18 AM 26.2453 -77.0069 130° Southeast 460 529 37,000  Level Miami Center
Sat 10:46:18 AM 26.1617 -76.9097 134° Southeast 460 529 37,000  Level Miami Center
Sat 10:47:18 AM 26.0781 -76.8031 131° Southeast 460 529 37,000  Level Miami Center
Sat 10:48:18 AM 25.9944 -76.6969 131° Southeast 454 522 37,000  Level Miami Center
Sat 10:49:18 AM 25.9128 -76.5953 132° Southeast 454 522 37,000  Level Miami Center
Sat 10:50:18 AM 25.8289 -76.4917 132° Southeast 454 522 37,000  Level Miami Center
Sat 10:51:18 AM 25.7450 -76.3881 132° Southeast 449 517 37,000  Level Miami Center
Sat 10:52:18 AM 25.6589 -76.2800 131° Southeast 454 522 37,000  Level Miami Center
Sat 10:53:18 AM 25.5769 -76.1792 132° Southeast 449 517 37,000  Level Miami Center
Sat 10:54:18 AM 25.4908 -76.0736 132° Southeast 449 517 37,000  Level Miami Center
Sat 10:55:18 AM 25.4067 -75.9683 131° Southeast 449 517 37,000  Level Miami Center
Sat 10:56:18 AM 25.3267 -75.8700 132° Southeast 442 509 37,000  Level Miami Center
Sat 10:57:18 AM 25.2381 -75.7653 133° Southeast 447 514 37,000  Level Miami Center
Sat 10:58:18 AM 25.1472 -75.6489 131° Southeast 447 514 37,000  Level Miami Center
Sat 10:59:18 AM 25.0628 -75.5511 134° Southeast 442 509 37,000  Level Miami Center
Sat 11:00:18 AM 24.9825 -75.4511 132° Southeast 442 509 37,000  Level Miami Center
Sat 11:01:18 AM 24.8978 -75.3489 132° Southeast 442 509 37,000  Level Miami Center
Sat 11:02:18 AM 24.8175 -75.2469 131° Southeast 436 502 37,000  Level Miami Center
Sat 11:03:18 AM 24.7328 -75.1475 133° Southeast 437 503 37,000  Level Miami Center
Sat 11:04:18 AM 24.6522 -75.0478 132° Southeast 437 503 37,000  Level Miami Center
Sat 11:05:18 AM 24.5650 -74.9417 132° Southeast 442 509 37,000  Level Miami Center
Sat 11:06:18 AM 24.4844 -74.8494 134° Southeast 437 503 37,000  Level Miami Center
Sat 11:07:18 AM 24.4014 -74.7458 131° Southeast 437 503 37,000  Level Miami Center
Sat 11:08:18 AM 24.3164 -74.6447 133° Southeast 437 503 37,000  Level Miami Center
Sat 11:09:18 AM 24.2314 -74.5458 133° Southeast 437 503 37,000  Level Miami Center
Sat 11:10:18 AM 24.1483 -74.4450 132° Southeast 437 503 37,000  Level Miami Center
Sat 11:11:18 AM 24.0631 -74.3464 133° Southeast 437 503 37,000  Level Miami Center
Sat 11:12:18 AM 23.9797 -74.2458 132° Southeast 443 510 37,000  Level Miami Center
Sat 11:13:18 AM 23.8967 -74.1453 132° Southeast 438 504 37,000 -300 Level Miami Center
Sat 11:14:18 AM 23.8111 -74.0472 134° Southeast 438 504 36,400 -800 Descending Miami Center
Sat 11:15:18 AM 23.7256 -73.9469 133° Southeast 444 511 35,400 -700 Descending Miami Center
Sat 11:16:18 AM 23.6422 -73.8492 133° Southeast 439 505 35,000 -200 Descending Miami Center
Sat 11:17:18 AM 23.5567 -73.7492 133° Southeast 445 512 35,000  Level Miami Center
Sat 11:18:18 AM 23.4794 -73.6606 134° Southeast 445 512 35,000  Level Miami Center
Sat 11:19:18 AM 23.3917 -73.5608 134° Southeast 445 512 35,000  Level Miami Center
Sat 11:20:18 AM 23.3058 -73.4592 133° Southeast 445 512 35,000  Level Miami Center
Sat 11:21:18 AM 23.2242 -73.3597 132° Southeast 445 512 35,000  Level Miami Center
Sat 11:22:18 AM 23.1322 -73.2606 135° Southeast 450 518 35,000  Level Miami Center
Sat 11:23:18 AM 23.0483 -73.1636 133° Southeast 445 512 35,000  Level Miami Center
Sat 11:24:18 AM 22.9728 -73.0642 130° Southeast 445 512 35,000  Level Miami Center
Sat 11:25:18 AM 22.8847 -72.9653 134° Southeast 445 512 35,000  Level Miami Center
Sat 11:26:18 AM 22.7942 -72.8622 134° Southeast 450 518 35,000  Level Miami Center
Sat 11:27:18 AM 22.7039 -72.7614 134° Southeast 456 525 35,000  Level Miami Center
Sat 11:28:18 AM 22.6175 -72.6586 132° Southeast 462 532 35,000  Level Miami Center
Sat 11:29:18 AM 22.5269 -72.5581 134° Southeast 462 532 35,000  Level Miami Center
Sat 11:30:18 AM 22.4403 -72.4531 132° Southeast 462 532 35,000  Level Miami Center
Sat 11:31:18 AM 22.3519 -72.3528 134° Southeast 462 532 35,000  Level Miami Center
Sat 11:32:18 AM 22.2633 -72.2550 134° Southeast 462 532 35,000 -50 Level Miami Center
Sat 11:33:18 AM 22.1747 -72.1550 134° Southeast 462 532 34,900 -50 Descending Miami Center
Sat 11:34:18 AM 22.0861 -72.0553 134° Southeast 462 532 34,900 50 Level Miami Center
Sat 11:35:18 AM 21.9950 -71.9533 134° Southeast 462 532 35,000 50 Climbing Miami Center
Sat 11:36:18 AM 21.9061 -71.8514 133° Southeast 462 532 35,000  Level Miami Center
Sat 11:37:18 AM 21.8194 -71.7519 133° Southeast 462 532 35,000  Level Miami Center
Sat 11:38:18 AM 21.7283 -71.6506 134° Southeast 467 537 35,000  Level Miami Center
Sat 11:39:18 AM 21.6394 -71.5514 134° Southeast 461 531 35,000  Level Miami Center
Sat 11:40:18 AM 21.5506 -71.4522 134° Southeast 461 531 35,000  Level Miami Center
Sat 11:41:18 AM 21.4594 -71.3558 135° Southeast 461 531 35,000  Level Miami Center
Sat 11:42:18 AM 21.3681 -71.2525 134° Southeast 466 536 35,000  Level Miami Center
Sat 11:43:18 AM 21.2639 -71.1392 135° Southeast 476 548 35,000  Level Miami Center
Sat 11:44:18 AM 21.1786 -71.0381 132° Southeast 471 542 35,000  Level Miami Center
Sat 11:45:18 AM 21.0914 -70.9397 134° Southeast 460 529 35,000  Level Miami Center
Sat 11:46:18 AM 21.0022 -70.8436 135° Southeast 460 529 35,000  Level Miami Center
Sat 11:47:18 AM 20.9128 -70.7433 134° Southeast 465 535 35,000  Level Miami Center
Sat 11:48:18 AM 20.8236 -70.6453 134° Southeast 465 535 35,000  Level Miami Center
Sat 11:49:18 AM 20.7319 -70.5456 134° Southeast 465 535 35,000 -200 Level Miami Center
Sat 11:50:18 AM 20.6425 -70.4478 134° Southeast 465 535 34,600 -650 Descending Miami Center
Sat 11:51:18 AM 20.5550 -70.3522 134° Southeast 460 529 33,700 -950 Descending Miami Center
Sat 11:52:18 AM 20.4678 -70.2547 134° Southeast 460 529 32,700 -1,000 Descending Miami Center
Sat 11:53:18 AM 20.3781 -70.1550 134° Southeast 465 535 31,700 -1,050 Descending Miami Center
Sat 11:54:18 AM 20.2864 -70.0603 136° Southeast 465 535 30,600 -1,100 Descending Miami Center
Sat 11:55:18 AM 20.1967 -69.9631 135° Southeast 465 535 29,500 -1,100 Descending Miami Center
Sat 11:56:18 AM 20.1047 -69.8642 135° Southeast 465 535 28,400 -1,150 Descending Miami Center
Sat 11:57:18 AM 20.0194 -69.7714 134° Southeast 460 529 27,200 -1,150 Descending Miami Center
Sat 11:58:18 AM 19.9361 -69.6789 134° Southeast 449 517 26,100 -1,100 Descending Miami Center
Sat 12:00:00 PM 19.7912 -69.5330 141° Southeast  Level FlightAware Approximate
Sat 12:07:00 PM 19.1818 -68.9483 137° Southeast  Level FlightAware Approximate
Sat 12:08:00 PM 19.0941 -68.8656 140° Southeast  Level FlightAware Approximate
Sat 12:09:00 PM 19.0036 -68.7865 140° Southeast  Level FlightAware Approximate
Sat 12:10:00 PM 18.9180 -68.7013 137° Southeast  Level FlightAware Approximate
Sat 12:11:00 PM 18.8316 -68.6172 140° Southeast  Level FlightAware Approximate
Sat 12:12:00 PM 18.7411 -68.5381 140° Southeast  Level FlightAware Approximate
Sat 12:13:00 PM 18.6510 -68.4674 148° Southeast  Level FlightAware Approximate
Sat 12:14:00 PM 18.5776 -68.3776 137° Southeast  Level FlightAware Approximate
Sat 12:15:00 PM 18.5674 -68.3634 90° East  Level Estimated
Sat 12:16:00 PM 18.5674 -68.3634 90° East  Level Estimated
Sat 12:17:00 PM 18.5674 -68.3634 90° East  Level Estimated
Sat 12:18:00 PM 18.5674 -68.3634 90° East  Level Estimated
Sat 12:19:00 PM 18.5674 -68.3634 90° East  Level Estimated

Login

Don't have an account? Register now (free) for customized features, flight alerts, and more!